Time;durP1;ratioP1;P1;durP2;ratioP2;P2;SDS_P1;SDS_P2;PMS_P1;PMS_P2;Temp;Humidity;BMP_temperature;BMP_pressure;BME280_temperature;BME280_humidity;BME280_pressure;Samples;Min_cycle;Max_cycle;Signal;HPM_P1;HPM_P2
2019/08/23 00:00:04;;;;;;;2.43;2.09;;;;;;;22.27;55.48;101409.89;;;;-52
2019/08/23 00:03:04;;;;;;;2.37;2.09;;;;;;;22.27;55.48;101411.63;;;;-58
2019/08/23 00:06:05;;;;;;;2.65;2.33;;;;;;;22.26;55.46;101405.06;;;;-61
2019/08/23 00:09:05;;;;;;;3.35;2.20;;;;;;;22.26;55.48;101410.58;;;;-59
2019/08/23 00:12:05;;;;;;;2.63;2.01;;;;;;;22.26;55.48;101408.22;;;;-60
2019/08/23 00:15:04;;;;;;;2.79;2.11;;;;;;;22.25;55.45;101411.31;;;;-59
2019/08/23 00:18:04;;;;;;;2.31;2.11;;;;;;;22.25;55.51;101410.19;;;;-50
2019/08/23 00:21:04;;;;;;;2.71;2.10;;;;;;;22.25;55.47;101416.46;;;;-49
2019/08/23 00:24:04;;;;;;;2.56;2.09;;;;;;;22.25;55.46;101413.22;;;;-49
2019/08/23 00:27:05;;;;;;;2.31;2.03;;;;;;;22.24;55.48;101416.41;;;;-49
2019/08/23 00:30:04;;;;;;;2.59;2.07;;;;;;;22.24;55.46;101415.41;;;;-60
2019/08/23 00:33:04;;;;;;;2.41;2.21;;;;;;;22.23;55.46;101411.21;;;;-57
2019/08/23 00:36:04;;;;;;;2.73;2.29;;;;;;;22.24;55.42;101408.46;;;;-60
2019/08/23 00:39:05;;;;;;;2.47;2.15;;;;;;;22.23;55.42;101412.33;;;;-57
2019/08/23 00:42:04;;;;;;;2.91;2.20;;;;;;;22.23;55.46;101410.27;;;;-61
2019/08/23 00:45:04;;;;;;;3.60;2.30;;;;;;;22.22;55.52;101409.48;;;;-61
2019/08/23 00:48:04;;;;;;;2.53;2.27;;;;;;;22.22;55.48;101410.16;;;;-52
2019/08/23 00:51:04;;;;;;;3.31;2.21;;;;;;;22.21;55.44;101412.33;;;;-49
2019/08/23 00:54:04;;;;;;;2.37;2.17;;;;;;;22.22;55.47;101410.55;;;;-51
2019/08/23 00:57:04;;;;;;;2.31;2.10;;;;;;;22.21;55.45;101411.78;;;;-51
2019/08/23 01:00:04;;;;;;;2.43;2.23;;;;;;;22.21;55.43;101409.43;;;;-51
2019/08/23 01:03:04;;;;;;;2.45;2.25;;;;;;;22.21;55.43;101413.20;;;;-58
2019/08/23 01:06:18;;;;;;;2.94;2.09;;;;;;;22.20;55.50;101411.78;;;;-51
2019/08/23 01:09:04;;;;;;;2.92;2.13;;;;;;;22.20;55.46;101410.50;;;;-52
2019/08/23 01:12:04;;;;;;;2.29;2.09;;;;;;;22.19;55.46;101411.39;;;;-58
2019/08/23 01:15:04;;;;;;;3.03;2.31;;;;;;;22.20;55.45;101410.45;;;;-52
2019/08/23 01:18:04;;;;;;;2.21;2.01;;;;;;;22.19;55.42;101409.77;;;;-58
2019/08/23 01:21:05;;;;;;;4.03;2.17;;;;;;;22.18;55.42;101414.88;;;;-57
2019/08/23 01:24:04;;;;;;;2.24;2.05;;;;;;;22.18;55.38;101416.35;;;;-50
2019/08/23 01:27:04;;;;;;;2.99;2.06;;;;;;;22.18;55.42;101412.69;;;;-52
2019/08/23 01:30:04;;;;;;;2.37;2.12;;;;;;;22.18;55.52;101413.26;;;;-58
2019/08/23 01:33:04;;;;;;;3.37;1.99;;;;;;;22.18;55.47;101413.70;;;;-52
2019/08/23 01:36:05;;;;;;;2.31;2.10;;;;;;;22.17;55.51;101411.63;;;;-50
2019/08/23 01:39:05;;;;;;;2.96;2.03;;;;;;;22.17;55.46;101410.25;;;;-58
2019/08/23 01:42:05;;;;;;;2.78;2.05;;;;;;;22.17;55.50;101405.70;;;;-58
2019/08/23 01:45:04;;;;;;;2.27;2.07;;;;;;;22.17;55.48;101405.94;;;;-52
2019/08/23 01:48:04;;;;;;;2.30;2.10;;;;;;;22.16;55.49;101403.97;;;;-52
2019/08/23 01:51:04;;;;;;;2.27;2.08;;;;;;;22.16;55.43;101405.42;;;;-57
2019/08/23 01:54:04;;;;;;;2.47;2.27;;;;;;;22.16;55.49;101406.59;;;;-52
2019/08/23 01:57:04;;;;;;;3.02;2.10;;;;;;;22.16;55.51;101408.41;;;;-51
2019/08/23 02:00:04;;;;;;;2.75;2.02;;;;;;;22.16;55.43;101408.34;;;;-51
2019/08/23 02:03:04;;;;;;;2.20;2.00;;;;;;;22.15;55.50;101407.83;;;;-57
2019/08/23 02:06:04;;;;;;;2.42;2.17;;;;;;;22.15;55.47;101409.24;;;;-57
2019/08/23 02:09:06;;;;;;;2.18;1.98;;;;;;;22.16;55.48;101415.58;;;;-57
2019/08/23 02:12:04;;;;;;;2.13;1.97;;;;;;;22.15;55.47;101413.34;;;;-60
2019/08/23 02:15:05;;;;;;;2.25;2.02;;;;;;;22.14;55.49;101421.08;;;;-57
2019/08/23 02:18:04;;;;;;;2.29;2.09;;;;;;;22.14;55.46;101421.81;;;;-50
2019/08/23 02:21:04;;;;;;;2.32;2.09;;;;;;;22.14;55.46;101422.31;;;;-60
2019/08/23 02:24:04;;;;;;;2.30;2.10;;;;;;;22.15;55.49;101422.49;;;;-50
2019/08/23 02:27:04;;;;;;;2.17;2.00;;;;;;;22.14;55.50;101424.95;;;;-49
2019/08/23 02:30:04;;;;;;;2.31;2.11;;;;;;;22.15;55.35;101425.02;;;;-57
2019/08/23 02:33:04;;;;;;;3.10;2.20;;;;;;;22.14;55.43;101429.05;;;;-50
2019/08/23 02:36:04;;;;;;;2.34;2.13;;;;;;;22.14;55.38;101429.05;;;;-49
2019/08/23 02:39:05;;;;;;;2.41;2.19;;;;;;;22.13;55.43;101427.66;;;;-50
2019/08/23 02:42:04;;;;;;;3.09;2.20;;;;;;;22.13;55.47;101429.23;;;;-50
2019/08/23 02:45:04;;;;;;;2.22;2.02;;;;;;;22.13;55.42;101430.34;;;;-49
2019/08/23 02:48:04;;;;;;;2.27;2.07;;;;;;;22.13;55.44;101431.08;;;;-60
2019/08/23 02:51:04;;;;;;;2.71;2.15;;;;;;;22.13;55.39;101431.69;;;;-50
2019/08/23 02:54:04;;;;;;;2.37;2.17;;;;;;;22.13;55.40;101435.23;;;;-50
2019/08/23 02:57:04;;;;;;;2.25;2.05;;;;;;;22.13;55.37;101430.18;;;;-52
2019/08/23 03:00:04;;;;;;;2.30;2.10;;;;;;;22.13;55.42;101428.22;;;;-58
2019/08/23 03:03:04;;;;;;;2.39;2.19;;;;;;;22.12;55.39;101428.55;;;;-57
2019/08/23 03:06:04;;;;;;;2.61;2.07;;;;;;;22.12;55.38;101426.99;;;;-51
2019/08/23 03:09:05;;;;;;;2.50;2.30;;;;;;;22.11;55.33;101427.16;;;;-49
2019/08/23 03:12:04;;;;;;;2.22;2.02;;;;;;;22.11;55.37;101424.42;;;;-50
2019/08/23 03:15:05;;;;;;;2.29;2.09;;;;;;;22.11;55.37;101424.42;;;;-57
2019/08/23 03:18:04;;;;;;;2.29;2.09;;;;;;;22.11;55.41;101424.09;;;;-56
2019/08/23 03:21:04;;;;;;;2.29;2.09;;;;;;;22.10;55.33;101421.22;;;;-50
2019/08/23 03:24:04;;;;;;;2.33;2.13;;;;;;;22.11;55.33;101422.06;;;;-49
2019/08/23 03:27:04;;;;;;;2.38;2.18;;;;;;;22.11;55.36;101421.90;;;;-59
2019/08/23 03:30:05;;;;;;;2.25;2.05;;;;;;;22.10;55.37;101417.41;;;;-60
2019/08/23 03:33:04;;;;;;;2.31;2.10;;;;;;;22.09;55.39;101418.31;;;;-60
2019/08/23 03:36:04;;;;;;;2.15;1.99;;;;;;;22.09;55.33;101419.82;;;;-57
2019/08/23 03:39:05;;;;;;;2.20;2.00;;;;;;;22.10;55.36;101424.03;;;;-48
2019/08/23 03:42:04;;;;;;;2.38;2.18;;;;;;;22.09;55.31;101426.45;;;;-60
2019/08/23 03:45:04;;;;;;;2.49;2.21;;;;;;;22.10;55.41;101431.10;;;;-51
2019/08/23 03:48:05;;;;;;;2.29;2.09;;;;;;;22.09;55.33;101428.86;;;;-50
2019/08/23 03:51:04;;;;;;;2.34;2.14;;;;;;;22.09;55.27;101431.16;;;;-49
2019/08/23 03:54:04;;;;;;;2.43;2.23;;;;;;;22.09;55.34;101432.83;;;;-57
2019/08/23 03:57:04;;;;;;;2.40;2.20;;;;;;;22.08;55.33;101431.61;;;;-50
2019/08/23 04:00:04;;;;;;;2.30;2.10;;;;;;;22.08;55.39;101433.13;;;;-51
2019/08/23 04:03:04;;;;;;;2.58;2.29;;;;;;;22.08;55.37;101429.98;;;;-58
2019/08/23 04:06:05;;;;;;;2.21;2.00;;;;;;;22.07;55.38;101431.23;;;;-61
2019/08/23 04:09:05;;;;;;;2.63;2.33;;;;;;;22.08;55.42;101429.48;;;;-61
2019/08/23 04:12:04;;;;;;;2.40;2.20;;;;;;;22.07;55.42;101425.23;;;;-50
2019/08/23 04:15:04;;;;;;;2.24;2.10;;;;;;;22.08;55.33;101429.65;;;;-52
2019/08/23 04:18:04;;;;;;;2.31;2.11;;;;;;;22.07;55.35;101431.56;;;;-50
2019/08/23 04:21:04;;;;;;;2.20;2.00;;;;;;;22.07;55.39;101430.88;;;;-58
2019/08/23 04:24:04;;;;;;;2.40;2.19;;;;;;;22.07;55.32;101433.58;;;;-49
2019/08/23 04:27:04;;;;;;;2.27;2.06;;;;;;;22.07;55.39;101438.97;;;;-57
2019/08/23 04:30:04;;;;;;;2.29;2.09;;;;;;;22.05;55.44;101434.49;;;;-60
2019/08/23 04:33:04;;;;;;;2.30;2.07;;;;;;;22.06;55.33;101439.42;;;;-57
2019/08/23 04:36:04;;;;;;;2.39;2.19;;;;;;;22.06;55.38;101437.73;;;;-51
2019/08/23 04:39:05;;;;;;;2.42;2.22;;;;;;;22.06;55.40;101437.96;;;;-57
2019/08/23 04:42:04;;;;;;;2.31;2.11;;;;;;;22.06;55.37;101439.08;;;;-52
2019/08/23 04:45:04;;;;;;;2.59;2.10;;;;;;;22.05;55.32;101440.38;;;;-61
2019/08/23 04:48:04;;;;;;;2.41;2.10;;;;;;;22.06;55.42;101441.77;;;;-57
2019/08/23 04:51:04;;;;;;;2.25;2.10;;;;;;;22.05;55.39;101445.92;;;;-58
2019/08/23 04:54:04;;;;;;;2.31;2.11;;;;;;;22.05;55.39;101447.27;;;;-52
2019/08/23 04:57:04;;;;;;;2.15;1.99;;;;;;;22.04;55.48;101446.22;;;;-61
2019/08/23 05:00:04;;;;;;;2.41;2.21;;;;;;;22.05;55.38;101451.25;;;;-52
2019/08/23 05:03:04;;;;;;;2.36;2.16;;;;;;;22.06;55.41;101454.45;;;;-52
2019/08/23 05:06:04;;;;;;;2.63;2.28;;;;;;;22.05;55.45;101455.85;;;;-51
2019/08/23 05:09:04;;;;;;;2.10;2.00;;;;;;;22.04;55.41;101455.98;;;;-52
2019/08/23 05:12:04;;;;;;;2.26;2.07;;;;;;;22.05;55.44;101456.86;;;;-50
2019/08/23 05:15:04;;;;;;;2.35;2.15;;;;;;;22.05;55.43;101465.38;;;;-50
2019/08/23 05:18:04;;;;;;;2.31;2.11;;;;;;;22.05;55.45;101462.64;;;;-51
2019/08/23 05:21:04;;;;;;;2.11;2.01;;;;;;;22.04;55.42;101465.16;;;;-50
2019/08/23 05:24:04;;;;;;;4.08;2.19;;;;;;;22.04;55.46;101465.45;;;;-50
2019/08/23 05:27:04;;;;;;;2.30;2.10;;;;;;;22.04;55.41;101470.03;;;;-52
2019/08/23 05:30:04;;;;;;;7.37;4.65;;;;;;;21.66;49.14;101467.76;;;;-49
2019/08/23 05:33:04;;;;;;;5.33;4.62;;;;;;;21.24;49.05;101471.14;;;;-50
2019/08/23 05:36:05;;;;;;;6.75;4.42;;;;;;;21.00;49.77;101475.48;;;;-48
2019/08/23 05:39:05;;;;;;;6.49;4.29;;;;;;;20.84;50.58;101477.22;;;;-48
2019/08/23 05:42:04;;;;;;;6.22;4.35;;;;;;;20.74;50.71;101479.77;;;;-52
2019/08/23 05:45:04;;;;;;;6.57;4.21;;;;;;;20.71;51.02;101479.83;;;;-51
2019/08/23 05:48:04;;;;;;;10.31;4.30;;;;;;;20.61;51.15;101483.23;;;;-52
2019/08/23 05:51:04;;;;;;;7.92;4.35;;;;;;;20.55;51.43;101481.55;;;;-52
2019/08/23 05:54:04;;;;;;;7.84;4.53;;;;;;;20.50;51.59;101481.54;;;;-52
2019/08/23 05:57:04;;;;;;;5.89;4.37;;;;;;;20.48;51.55;101478.80;;;;-52
2019/08/23 06:00:04;;;;;;;9.25;4.47;;;;;;;20.42;51.79;101480.69;;;;-52
2019/08/23 06:03:04;;;;;;;6.45;4.35;;;;;;;20.40;52.01;101479.73;;;;-52
2019/08/23 06:06:04;;;;;;;7.25;4.53;;;;;;;20.41;52.21;101483.04;;;;-52
2019/08/23 06:09:04;;;;;;;9.57;4.35;;;;;;;20.36;52.39;101483.20;;;;-52
2019/08/23 06:12:04;;;;;;;7.47;4.58;;;;;;;20.34;52.21;101486.61;;;;-51
2019/08/23 06:15:04;;;;;;;5.71;4.55;;;;;;;20.32;52.47;101487.82;;;;-52
2019/08/23 06:18:04;;;;;;;10.03;4.47;;;;;;;20.32;52.52;101493.31;;;;-52
2019/08/23 06:21:04;;;;;;;5.75;4.37;;;;;;;20.30;52.78;101494.54;;;;-52
2019/08/23 06:24:04;;;;;;;6.39;4.62;;;;;;;20.33;52.55;101498.45;;;;-52
2019/08/23 06:27:04;;;;;;;8.19;4.44;;;;;;;20.30;52.56;101502.42;;;;-52
2019/08/23 06:30:04;;;;;;;7.55;4.71;;;;;;;20.29;52.64;101504.70;;;;-52
2019/08/23 06:33:04;;;;;;;8.31;4.55;;;;;;;20.28;53.02;101506.11;;;;-52
2019/08/23 06:36:04;;;;;;;10.29;4.92;;;;;;;20.28;53.21;101506.95;;;;-52
2019/08/23 06:39:04;;;;;;;7.57;4.72;;;;;;;20.31;53.28;101510.03;;;;-51
2019/08/23 06:42:04;;;;;;;10.08;5.13;;;;;;;20.30;53.37;101505.83;;;;-52
2019/08/23 06:45:04;;;;;;;9.06;4.83;;;;;;;20.35;53.65;101500.13;;;;-51
2019/08/23 06:48:04;;;;;;;9.95;4.53;;;;;;;20.45;53.67;101501.39;;;;-51
2019/08/23 06:51:04;;;;;;;12.50;4.61;;;;;;;20.53;53.58;101505.09;;;;-52
2019/08/23 06:54:04;;;;;;;10.81;4.43;;;;;;;20.59;53.45;101503.60;;;;-61
2019/08/23 06:57:04;;;;;;;6.21;4.20;;;;;;;20.65;53.52;101503.16;;;;-59
2019/08/23 07:00:04;;;;;;;11.29;4.25;;;;;;;20.71;53.49;101505.34;;;;-59
2019/08/23 07:03:04;;;;;;;4.91;3.93;;;;;;;20.75;53.55;101505.51;;;;-52
2019/08/23 07:06:04;;;;;;;5.67;4.16;;;;;;;20.79;53.50;101505.63;;;;-59
2019/08/23 07:09:04;;;;;;;6.55;3.99;;;;;;;20.83;53.55;101503.48;;;;-59
2019/08/23 07:12:04;;;;;;;6.80;3.95;;;;;;;20.86;53.60;101503.59;;;;-52
2019/08/23 07:15:04;;;;;;;7.15;3.95;;;;;;;20.89;53.63;101503.76;;;;-59
2019/08/23 07:18:04;;;;;;;4.68;3.71;;;;;;;20.92;53.63;101503.44;;;;-50
2019/08/23 07:21:04;;;;;;;6.00;3.67;;;;;;;20.95;53.62;101502.91;;;;-60
2019/08/23 07:24:04;;;;;;;6.39;3.97;;;;;;;20.98;53.59;101505.09;;;;-60
2019/08/23 07:27:04;;;;;;;5.33;3.79;;;;;;;20.99;53.65;101502.30;;;;-59
2019/08/23 07:30:04;;;;;;;5.91;3.65;;;;;;;21.02;53.67;101507.84;;;;-50
2019/08/23 07:33:04;;;;;;;6.61;3.80;;;;;;;21.04;53.70;101504.16;;;;-50
2019/08/23 07:36:04;;;;;;;6.50;3.93;;;;;;;21.06;53.87;101499.77;;;;-48
2019/08/23 07:39:05;;;;;;;8.10;3.83;;;;;;;21.09;53.86;101504.97;;;;-50
2019/08/23 07:42:04;;;;;;;7.19;3.90;;;;;;;21.10;53.00;101502.19;;;;-51
2019/08/23 07:45:04;;;;;;;6.89;4.05;;;;;;;21.08;52.68;101501.18;;;;-50
2019/08/23 07:48:04;;;;;;;7.21;4.17;;;;;;;21.11;52.81;101501.11;;;;-51
2019/08/23 07:51:04;;;;;;;13.91;4.29;;;;;;;21.14;53.11;101495.91;;;;-51
2019/08/23 07:54:04;;;;;;;10.45;4.24;;;;;;;21.17;53.15;101495.34;;;;-53
2019/08/23 07:57:04;;;;;;;10.86;4.11;;;;;;;21.19;53.32;101493.95;;;;-51
2019/08/23 08:00:04;;;;;;;11.23;4.06;;;;;;;21.24;53.29;101498.69;;;;-52
2019/08/23 08:03:04;;;;;;;7.81;3.79;;;;;;;21.25;53.27;101501.33;;;;-50
2019/08/23 08:06:04;;;;;;;6.13;3.59;;;;;;;21.27;53.32;101502.68;;;;-61
2019/08/23 08:09:05;;;;;;;5.99;3.63;;;;;;;21.29;53.37;101503.22;;;;-60
2019/08/23 08:12:04;;;;;;;6.88;3.42;;;;;;;21.30;53.37;101504.62;;;;-61
2019/08/23 08:15:04;;;;;;;6.03;3.68;;;;;;;21.30;53.36;101501.03;;;;-61
2019/08/23 08:18:04;;;;;;;4.99;3.52;;;;;;;21.31;53.41;101498.46;;;;-61
2019/08/23 08:21:04;;;;;;;6.13;3.61;;;;;;;21.33;53.40;101496.49;;;;-61
2019/08/23 08:24:04;;;;;;;5.18;3.44;;;;;;;21.35;53.48;101495.66;;;;-61
2019/08/23 08:27:04;;;;;;;6.87;3.66;;;;;;;21.36;53.44;101494.47;;;;-60
2019/08/23 08:30:04;;;;;;;5.17;3.30;;;;;;;21.38;53.46;101496.25;;;;-60
2019/08/23 08:33:04;;;;;;;9.40;3.77;;;;;;;21.38;53.57;101496.31;;;;-60
2019/08/23 08:36:04;;;;;;;5.89;3.22;;;;;;;21.39;53.60;101494.63;;;;-60
2019/08/23 08:39:04;;;;;;;5.18;3.37;;;;;;;21.43;53.81;101495.03;;;;-58
2019/08/23 08:42:04;;;;;;;8.03;3.59;;;;;;;21.44;53.92;101488.98;;;;-58
2019/08/23 08:45:04;;;;;;;6.32;3.50;;;;;;;21.48;54.10;101484.30;;;;-61
2019/08/23 08:48:04;;;;;;;7.47;3.31;;;;;;;21.52;54.25;101482.16;;;;-58
2019/08/23 08:51:04;;;;;;;7.63;3.73;;;;;;;21.55;54.51;101479.80;;;;-59
2019/08/23 08:54:04;;;;;;;6.71;3.51;;;;;;;21.57;54.25;101476.38;;;;-62
2019/08/23 08:57:04;;;;;;;8.58;3.51;;;;;;;21.58;54.76;101478.01;;;;-54
2019/08/23 09:00:04;;;;;;;13.75;3.92;;;;;;;21.60;54.54;101470.69;;;;-54
2019/08/23 09:03:04;;;;;;;8.01;3.52;;;;;;;21.62;54.73;101467.09;;;;-57
2019/08/23 09:06:04;;;;;;;12.01;3.69;;;;;;;21.65;54.50;101469.39;;;;-61
2019/08/23 09:09:04;;;;;;;6.63;3.61;;;;;;;21.66;54.77;101467.36;;;;-59
2019/08/23 09:12:04;;;;;;;7.45;3.55;;;;;;;21.69;54.80;101463.04;;;;-59
2019/08/23 09:15:04;;;;;;;6.17;3.29;;;;;;;21.70;54.82;101459.00;;;;-61
2019/08/23 09:18:04;;;;;;;6.04;3.39;;;;;;;21.71;54.71;101457.37;;;;-60
2019/08/23 09:21:04;;;;;;;8.19;3.32;;;;;;;21.70;54.53;101449.25;;;;-60
2019/08/23 09:24:04;;;;;;;7.02;3.43;;;;;;;21.73;54.52;101442.56;;;;-61
2019/08/23 09:27:04;;;;;;;8.37;3.31;;;;;;;21.72;54.46;101443.30;;;;-61
2019/08/23 09:30:04;;;;;;;7.53;3.59;;;;;;;21.73;54.67;101440.81;;;;-61
2019/08/23 09:33:04;;;;;;;9.13;3.63;;;;;;;21.75;54.49;101437.78;;;;-59
2019/08/23 09:36:04;;;;;;;6.35;3.48;;;;;;;21.76;54.54;101431.05;;;;-48
2019/08/23 09:39:04;;;;;;;5.09;3.60;;;;;;;21.77;54.49;101425.95;;;;-47
2019/08/23 09:42:04;;;;;;;6.39;3.48;;;;;;;21.78;54.55;101418.44;;;;-47
2019/08/23 09:45:04;;;;;;;7.99;3.51;;;;;;;21.78;54.52;101417.03;;;;-59
2019/08/23 09:48:04;;;;;;;11.15;4.01;;;;;;;21.79;54.64;101413.77;;;;-53
2019/08/23 09:51:04;;;;;;;9.54;3.59;;;;;;;21.80;54.65;101414.44;;;;-60
2019/08/23 09:54:04;;;;;;;9.91;3.99;;;;;;;21.83;54.76;101410.85;;;;-58
2019/08/23 09:57:04;;;;;;;11.58;3.87;;;;;;;21.83;54.77;101402.66;;;;-57
2019/08/23 10:00:05;;;;;;;12.20;3.75;;;;;;;21.84;54.70;101403.88;;;;-60
2019/08/23 10:03:04;;;;;;;8.20;3.72;;;;;;;21.85;54.68;101401.75;;;;-60
2019/08/23 10:06:04;;;;;;;10.56;3.69;;;;;;;21.86;54.66;101397.66;;;;-57
2019/08/23 10:09:04;;;;;;;9.62;3.76;;;;;;;21.88;54.65;101394.95;;;;-58
2019/08/23 10:12:04;;;;;;;14.38;3.64;;;;;;;21.90;54.57;101389.00;;;;-59
2019/08/23 10:15:04;;;;;;;10.91;3.73;;;;;;;21.91;54.78;101386.13;;;;-59
2019/08/23 10:18:04;;;;;;;10.21;3.99;;;;;;;21.91;54.48;101381.81;;;;-60
2019/08/23 10:21:04;;;;;;;9.61;3.65;;;;;;;21.91;54.67;101384.72;;;;-60
2019/08/23 10:24:04;;;;;;;14.85;3.64;;;;;;;21.91;54.68;101381.69;;;;-61
2019/08/23 10:27:04;;;;;;;17.62;4.02;;;;;;;21.94;54.79;101378.70;;;;-60
2019/08/23 10:30:04;;;;;;;10.07;3.89;;;;;;;21.95;54.64;101381.74;;;;-63
2019/08/23 10:33:04;;;;;;;11.63;4.03;;;;;;;21.95;54.67;101374.38;;;;-63
2019/08/23 10:36:04;;;;;;;12.27;3.79;;;;;;;21.94;54.55;101376.18;;;;-59
2019/08/23 10:39:04;;;;;;;11.93;3.65;;;;;;;21.94;54.75;101362.69;;;;-58
2019/08/23 10:42:04;;;;;;;7.57;3.58;;;;;;;21.95;54.61;101365.91;;;;-60
2019/08/23 10:45:04;;;;;;;8.79;3.60;;;;;;;21.96;54.58;101368.27;;;;-58
2019/08/23 10:48:04;;;;;;;12.52;3.79;;;;;;;21.96;54.66;101356.56;;;;-58
2019/08/23 10:51:04;;;;;;;11.12;3.59;;;;;;;21.96;54.53;101353.41;;;;-58
2019/08/23 10:54:04;;;;;;;12.43;3.93;;;;;;;21.96;54.53;101349.98;;;;-58
2019/08/23 10:57:04;;;;;;;8.66;3.49;;;;;;;21.96;54.48;101348.48;;;;-58
2019/08/23 11:00:04;;;;;;;9.45;3.52;;;;;;;21.97;54.41;101341.74;;;;-58
2019/08/23 11:03:04;;;;;;;11.48;3.78;;;;;;;21.97;54.46;101341.34;;;;-58
2019/08/23 11:06:04;;;;;;;7.99;3.51;;;;;;;21.96;54.45;101330.86;;;;-58
2019/08/23 11:09:04;;;;;;;10.79;3.39;;;;;;;21.97;54.43;101335.41;;;;-58
2019/08/23 11:12:04;;;;;;;8.64;3.31;;;;;;;21.96;54.40;101332.82;;;;-58
2019/08/23 11:15:04;;;;;;;8.49;3.34;;;;;;;21.96;54.41;101335.58;;;;-58
2019/08/23 11:18:23;;;;;;;7.23;3.44;;;;;;;21.96;54.39;101331.14;;;;-58
2019/08/23 11:21:04;;;;;;;6.47;3.42;;;;;;;21.95;54.29;101323.08;;;;-59
2019/08/23 11:24:04;;;;;;;7.95;3.55;;;;;;;21.98;54.39;101323.19;;;;-57
2019/08/23 11:27:04;;;;;;;6.81;3.17;;;;;;;22.00;54.48;101325.91;;;;-58
2019/08/23 11:30:04;;;;;;;12.53;3.54;;;;;;;22.02;54.50;101323.38;;;;-50
2019/08/23 11:33:05;;;;;;;6.78;3.23;;;;;;;22.04;54.45;101327.05;;;;-52
2019/08/23 11:36:04;;;;;;;7.97;3.29;;;;;;;22.05;54.44;101318.75;;;;-50
2019/08/23 11:39:05;;;;;;;14.47;3.69;;;;;;;22.06;54.64;101312.50;;;;-47
2019/08/23 11:42:04;;;;;;;8.59;3.38;;;;;;;22.08;54.61;101312.44;;;;-48
2019/08/23 11:45:04;;;;;;;13.29;3.79;;;;;;;22.09;54.54;101313.80;;;;-48
2019/08/23 11:48:04;;;;;;;10.27;3.70;;;;;;;22.10;54.46;101305.53;;;;-48
2019/08/23 11:51:04;;;;;;;9.29;3.23;;;;;;;22.11;54.54;101310.96;;;;-49
2019/08/23 11:54:04;;;;;;;7.45;3.25;;;;;;;22.11;54.48;101302.48;;;;-51
2019/08/23 11:57:04;;;;;;;9.49;3.04;;;;;;;22.12;54.53;101299.30;;;;-46
2019/08/23 12:00:04;;;;;;;8.01;3.39;;;;;;;22.12;54.55;101296.98;;;;-45
2019/08/23 12:03:04;;;;;;;8.71;3.43;;;;;;;22.13;54.55;101293.66;;;;-50
2019/08/23 12:06:04;;;;;;;5.89;3.31;;;;;;;22.14;54.43;101283.84;;;;-49
2019/08/23 12:09:04;;;;;;;6.37;3.50;;;;;;;22.15;54.55;101284.46;;;;-51
2019/08/23 12:12:04;;;;;;;6.71;3.09;;;;;;;22.13;54.62;101287.77;;;;-52
2019/08/23 12:15:04;;;;;;;8.63;3.03;;;;;;;22.13;54.59;101282.22;;;;-51
2019/08/23 12:18:04;;;;;;;6.91;3.23;;;;;;;22.13;54.56;101278.35;;;;-51
2019/08/23 12:21:04;;;;;;;5.71;3.15;;;;;;;22.13;54.54;101274.98;;;;-59
2019/08/23 12:24:04;;;;;;;6.95;3.16;;;;;;;22.13;54.51;101268.82;;;;-59
2019/08/23 12:27:04;;;;;;;6.00;3.11;;;;;;;22.12;54.50;101266.16;;;;-51
2019/08/23 12:30:04;;;;;;;11.49;3.09;;;;;;;22.12;54.57;101269.22;;;;-51
2019/08/23 12:33:04;;;;;;;9.84;3.23;;;;;;;22.13;54.49;101262.42;;;;-52
2019/08/23 12:36:04;;;;;;;5.39;3.15;;;;;;;22.12;54.45;101260.43;;;;-51
2019/08/23 12:39:04;;;;;;;8.17;3.19;;;;;;;22.12;54.45;101257.50;;;;-52
2019/08/23 12:42:04;;;;;;;5.71;3.09;;;;;;;22.11;54.51;101253.59;;;;-51
2019/08/23 12:45:04;;;;;;;5.74;2.96;;;;;;;22.11;54.38;101252.74;;;;-51
2019/08/23 12:48:04;;;;;;;5.24;2.90;;;;;;;22.11;54.47;101251.30;;;;-51
2019/08/23 12:51:04;;;;;;;4.42;2.80;;;;;;;22.10;54.44;101246.41;;;;-52
2019/08/23 12:54:04;;;;;;;5.19;2.87;;;;;;;22.11;54.37;101247.70;;;;-52
2019/08/23 12:57:04;;;;;;;5.89;3.29;;;;;;;22.11;54.35;101248.03;;;;-50
2019/08/23 13:00:04;;;;;;;4.75;2.73;;;;;;;22.09;54.41;101242.50;;;;-52
2019/08/23 13:03:04;;;;;;;4.34;2.69;;;;;;;22.09;54.42;101246.94;;;;-52
2019/08/23 13:06:04;;;;;;;4.99;3.05;;;;;;;22.09;54.37;101248.69;;;;-51
2019/08/23 13:09:04;;;;;;;5.11;2.91;;;;;;;22.09;54.41;101241.49;;;;-52
2019/08/23 13:12:04;;;;;;;4.09;2.72;;;;;;;22.09;54.40;101238.59;;;;-51
2019/08/23 13:15:04;;;;;;;6.43;3.10;;;;;;;22.09;54.41;101237.92;;;;-51
2019/08/23 13:18:04;;;;;;;4.15;2.83;;;;;;;22.09;54.39;101235.16;;;;-51
2019/08/23 13:21:04;;;;;;;5.83;2.80;;;;;;;22.09;54.36;101230.11;;;;-50
2019/08/23 13:24:04;;;;;;;4.05;2.62;;;;;;;22.09;54.39;101231.36;;;;-51
2019/08/23 13:27:04;;;;;;;5.53;2.79;;;;;;;22.08;54.33;101230.52;;;;-52
2019/08/23 13:30:04;;;;;;;4.33;2.71;;;;;;;22.09;54.40;101227.08;;;;-51
2019/08/23 13:33:04;;;;;;;4.20;2.78;;;;;;;22.08;54.39;101226.64;;;;-51
2019/08/23 13:36:04;;;;;;;5.24;2.85;;;;;;;22.09;54.42;101221.64;;;;-52
2019/08/23 13:39:04;;;;;;;3.36;2.78;;;;;;;22.08;54.31;101211.67;;;;-50
2019/08/23 13:42:04;;;;;;;4.25;2.94;;;;;;;22.08;54.39;101208.20;;;;-51
2019/08/23 13:45:04;;;;;;;3.76;2.90;;;;;;;22.09;54.33;101200.91;;;;-52
2019/08/23 13:48:04;;;;;;;4.49;2.63;;;;;;;22.08;54.38;101198.61;;;;-51
2019/08/23 13:51:04;;;;;;;4.47;2.70;;;;;;;22.08;54.38;101196.98;;;;-51
2019/08/23 13:54:04;;;;;;;5.06;2.84;;;;;;;22.08;54.36;101197.60;;;;-52
2019/08/23 13:57:04;;;;;;;3.77;2.55;;;;;;;22.08;54.39;101194.06;;;;-52
2019/08/23 14:00:04;;;;;;;4.27;2.70;;;;;;;22.07;54.33;101186.45;;;;-51
2019/08/23 14:03:04;;;;;;;5.04;2.75;;;;;;;22.08;54.35;101186.23;;;;-51
2019/08/23 14:06:04;;;;;;;3.74;2.61;;;;;;;22.09;54.33;101183.75;;;;-51
2019/08/23 14:09:04;;;;;;;3.90;2.65;;;;;;;22.08;54.40;101187.57;;;;-53
2019/08/23 14:12:04;;;;;;;3.35;2.46;;;;;;;22.08;54.39;101184.41;;;;-50
2019/08/23 14:15:04;;;;;;;5.27;2.56;;;;;;;22.08;54.40;101185.66;;;;-51
2019/08/23 14:18:04;;;;;;;3.58;2.61;;;;;;;22.07;54.42;101178.72;;;;-51
2019/08/23 14:21:04;;;;;;;3.70;2.55;;;;;;;22.08;54.39;101176.23;;;;-51
2019/08/23 14:24:04;;;;;;;3.16;2.79;;;;;;;22.08;54.41;101166.47;;;;-53
2019/08/23 14:27:04;;;;;;;3.22;2.33;;;;;;;22.08;54.38;101167.98;;;;-52
2019/08/23 14:30:04;;;;;;;2.81;2.38;;;;;;;22.08;54.37;101169.27;;;;-51
2019/08/23 14:33:04;;;;;;;5.27;2.77;;;;;;;22.08;54.33;101161.48;;;;-52
2019/08/23 14:36:04;;;;;;;3.14;2.41;;;;;;;22.09;54.39;101159.45;;;;-51
2019/08/23 14:39:05;;;;;;;3.71;2.55;;;;;;;22.08;54.36;101155.71;;;;-51
2019/08/23 14:42:04;;;;;;;4.75;2.50;;;;;;;22.09;54.40;101160.97;;;;-51
2019/08/23 14:45:04;;;;;;;3.77;2.59;;;;;;;22.08;54.36;101157.62;;;;-51
2019/08/23 14:48:04;;;;;;;4.43;2.65;;;;;;;22.08;54.34;101160.52;;;;-51
2019/08/23 14:51:04;;;;;;;4.68;2.55;;;;;;;22.08;54.33;101156.21;;;;-51
2019/08/23 14:54:04;;;;;;;3.92;2.43;;;;;;;22.08;54.34;101152.12;;;;-51
2019/08/23 14:57:04;;;;;;;2.74;2.49;;;;;;;22.09;54.39;101149.19;;;;-51
2019/08/23 15:00:04;;;;;;;2.85;2.37;;;;;;;22.08;54.38;101152.84;;;;-50
2019/08/23 15:03:04;;;;;;;2.59;2.39;;;;;;;22.08;54.35;101148.14;;;;-52
2019/08/23 15:06:04;;;;;;;3.25;2.40;;;;;;;22.08;54.37;101147.74;;;;-51
2019/08/23 15:09:05;;;;;;;2.90;2.37;;;;;;;22.08;54.39;101146.29;;;;-53
2019/08/23 15:12:04;;;;;;;3.47;2.25;;;;;;;22.07;54.41;101140.59;;;;-52
2019/08/23 15:15:04;;;;;;;4.14;2.48;;;;;;;22.07;54.50;101138.56;;;;-52
2019/08/23 15:18:04;;;;;;;4.04;2.44;;;;;;;22.05;54.46;101137.41;;;;-51
2019/08/23 15:21:05;;;;;;;2.61;2.40;;;;;;;22.04;54.55;101135.58;;;;-59
2019/08/23 15:24:04;;;;;;;3.62;2.55;;;;;;;22.04;54.53;101138.14;;;;-58
2019/08/23 15:27:04;;;;;;;3.05;2.34;;;;;;;22.04;54.59;101134.91;;;;-52
2019/08/23 15:30:04;;;;;;;3.09;2.38;;;;;;;22.04;54.60;101133.39;;;;-58
2019/08/23 15:33:04;;;;;;;2.93;2.43;;;;;;;22.03;54.57;101130.31;;;;-58
2019/08/23 15:36:04;;;;;;;3.52;2.52;;;;;;;22.03;54.55;101130.76;;;;-51
2019/08/23 15:39:04;;;;;;;2.69;2.28;;;;;;;22.02;54.60;101127.28;;;;-58
2019/08/23 15:42:04;;;;;;;2.63;2.42;;;;;;;22.02;54.56;101130.54;;;;-51
2019/08/23 15:45:04;;;;;;;2.72;2.28;;;;;;;22.02;54.61;101136.43;;;;-51
2019/08/23 15:48:04;;;;;;;3.54;2.27;;;;;;;22.02;54.57;101137.44;;;;-58
2019/08/23 15:51:04;;;;;;;2.94;2.31;;;;;;;22.02;54.63;101133.56;;;;-50
2019/08/23 15:54:04;;;;;;;3.61;2.22;;;;;;;22.02;54.62;101133.34;;;;-52
2019/08/23 15:57:04;;;;;;;2.92;2.20;;;;;;;22.02;54.58;101130.94;;;;-52
2019/08/23 16:00:04;;;;;;;3.10;2.47;;;;;;;22.02;54.60;101127.91;;;;-53
2019/08/23 16:03:04;;;;;;;2.49;2.13;;;;;;;22.01;54.58;101130.43;;;;-51
2019/08/23 16:06:04;;;;;;;3.43;2.42;;;;;;;22.01;54.60;101126.63;;;;-52
2019/08/23 16:09:04;;;;;;;2.60;2.38;;;;;;;22.02;54.64;101126.40;;;;-58
2019/08/23 16:12:04;;;;;;;2.51;2.31;;;;;;;22.01;54.67;101124.61;;;;-58
2019/08/23 16:15:04;;;;;;;3.66;2.43;;;;;;;22.01;54.65;101121.42;;;;-57
2019/08/23 16:18:04;;;;;;;2.49;2.27;;;;;;;22.00;54.65;101115.16;;;;-58
2019/08/23 16:21:04;;;;;;;2.33;2.13;;;;;;;22.01;54.67;101116.27;;;;-52
2019/08/23 16:24:04;;;;;;;2.50;2.30;;;;;;;22.01;54.66;101115.59;;;;-52
2019/08/23 16:27:04;;;;;;;3.54;2.35;;;;;;;22.01;54.70;101110.21;;;;-52
2019/08/23 16:30:04;;;;;;;3.34;2.27;;;;;;;22.00;54.71;101110.88;;;;-52
2019/08/23 16:33:04;;;;;;;2.53;2.30;;;;;;;22.00;54.69;101106.06;;;;-52
2019/08/23 16:36:04;;;;;;;2.31;2.11;;;;;;;22.00;54.72;101104.45;;;;-52
2019/08/23 16:39:04;;;;;;;2.92;2.23;;;;;;;22.00;54.66;101102.30;;;;-51